createdAt,value
2023-03-27T00:00:16.600Z,44.57
2023-03-27T00:00:51.085Z,44.17
2023-03-27T00:01:26.235Z,44.36
2023-03-27T00:01:58.706Z,44.24
2023-03-27T00:02:31.141Z,44.38
2023-03-27T00:03:06.272Z,44.21
2023-03-27T00:03:40.420Z,44.26
2023-03-27T00:04:17.918Z,44.24
2023-03-27T00:04:54.803Z,44.27
2023-03-27T00:05:27.971Z,44.35
2023-03-27T00:06:00.994Z,44.13
2023-03-27T00:06:35.974Z,44.60
2023-03-27T00:07:09.414Z,44.49
2023-03-27T00:07:41.965Z,44.29
2023-03-27T00:08:20.322Z,44.30
2023-03-27T00:08:52.774Z,44.12
2023-03-27T00:09:26.806Z,44.26
2023-03-27T00:10:02.937Z,44.34
2023-03-27T00:10:35.999Z,44.57
2023-03-27T00:11:08.476Z,44.65
2023-03-27T00:11:43.448Z,44.29
2023-03-27T00:12:15.839Z,44.27
2023-03-27T00:12:48.183Z,44.64
2023-03-27T00:13:23.173Z,44.22
2023-03-27T00:13:55.589Z,44.43
2023-03-27T00:14:27.927Z,44.69
2023-03-27T00:15:03.409Z,44.43
2023-03-27T00:15:36.298Z,44.60
2023-03-27T00:16:09.993Z,44.65
2023-03-27T00:16:46.505Z,44.23
2023-03-27T00:17:19.524Z,44.72
2023-03-27T00:17:54.594Z,44.63
2023-03-27T00:18:30.259Z,44.46
2023-03-27T00:19:02.695Z,44.79
2023-03-27T00:19:36.654Z,44.25
2023-03-27T00:20:12.546Z,44.51
2023-03-27T00:20:44.926Z,44.70
2023-03-27T00:21:17.411Z,44.34
2023-03-27T00:21:52.404Z,44.43
2023-03-27T00:22:24.844Z,44.65
2023-03-27T00:22:57.538Z,44.67
2023-03-27T00:23:35.625Z,44.48
2023-03-27T00:24:08.977Z,44.29
2023-03-27T00:24:41.358Z,44.22
2023-03-27T00:25:17.291Z,44.43
2023-03-27T00:25:50.155Z,44.24
2023-03-27T00:26:22.576Z,44.24
2023-03-27T00:26:58.421Z,44.50
2023-03-27T00:27:30.790Z,44.62
2023-03-27T00:28:04.464Z,44.67
2023-03-27T00:28:39.471Z,44.41
2023-03-27T00:29:13.536Z,44.24
2023-03-27T00:29:46.501Z,44.38
2023-03-27T00:30:21.503Z,44.41
2023-03-27T00:31:27.329Z,44.39
2023-03-27T00:32:02.345Z,44.64
2023-03-27T00:32:35.061Z,44.40
2023-03-27T00:33:09.222Z,44.17
2023-03-27T00:33:41.850Z,44.06
2023-03-27T00:34:18.006Z,44.36
2023-03-27T00:34:50.434Z,44.54
2023-03-27T00:35:23.487Z,44.32
2023-03-27T00:35:58.511Z,44.50
2023-03-27T00:36:31.660Z,44.13
2023-03-27T00:37:05.791Z,44.08
2023-03-27T00:37:40.912Z,44.06
2023-03-27T00:38:13.694Z,44.29
2023-03-27T00:38:48.722Z,44.48
2023-03-27T00:39:23.899Z,44.29
2023-03-27T00:39:56.672Z,44.52
2023-03-27T00:40:29.070Z,44.11
2023-03-27T00:41:05.102Z,44.31
2023-03-27T00:41:38.297Z,44.06
2023-03-27T00:42:13.227Z,44.10
2023-03-27T00:42:48.858Z,44.44
2023-03-27T00:43:23.042Z,44.26
2023-03-27T00:43:56.551Z,44.48
2023-03-27T00:44:37.404Z,44.04
2023-03-27T00:45:17.274Z,44.29
2023-03-27T00:45:52.147Z,44.50
2023-03-27T00:46:37.983Z,44.41
2023-03-27T00:47:12.970Z,44.41
2023-03-27T00:47:46.311Z,44.18
2023-03-27T00:48:22.326Z,44.20
2023-03-27T00:48:56.344Z,44.48
2023-03-27T00:49:33.835Z,44.48
2023-03-27T00:50:10.729Z,44.40
2023-03-27T00:50:45.047Z,44.44
2023-03-27T00:51:20.454Z,44.30
2023-03-27T00:51:53.740Z,44.43
2023-03-27T00:52:29.672Z,44.12
2023-03-27T00:53:07.372Z,44.09
2023-03-27T00:53:39.788Z,43.99
2023-03-27T00:54:17.919Z,44.01
2023-03-27T00:54:52.860Z,43.96
2023-03-27T00:55:27.157Z,44.42
2023-03-27T00:56:01.477Z,43.89
2023-03-27T00:56:34.289Z,44.37
2023-03-27T00:57:11.891Z,44.18
2023-03-27T00:57:47.069Z,43.90
2023-03-27T00:58:23.373Z,44.39
2023-03-27T00:59:01.254Z,43.95
2023-03-27T00:59:37.261Z,44.00
2023-03-27T01:00:13.718Z,44.43
2023-03-27T01:00:50.136Z,43.93
2023-03-27T01:01:24.351Z,44.48
2023-03-27T01:01:58.114Z,44.16
2023-03-27T01:02:33.200Z,43.93
2023-03-27T01:03:07.307Z,44.29
2023-03-27T01:03:41.914Z,44.45
2023-03-27T01:04:20.632Z,44.13
2023-03-27T01:04:54.011Z,44.39
2023-03-27T01:05:27.557Z,44.43
2023-03-27T01:06:04.485Z,44.47
2023-03-27T01:06:37.788Z,44.30
2023-03-27T01:07:12.317Z,44.11
2023-03-27T01:08:00.333Z,44.49
2023-03-27T01:08:37.244Z,44.44
2023-03-27T01:09:20.545Z,44.49
2023-03-27T01:09:56.682Z,44.43
2023-03-27T01:10:36.551Z,44.46
2023-03-27T01:11:18.370Z,44.33
2023-03-27T01:11:59.627Z,44.58
2023-03-27T01:12:37.809Z,44.59
2023-03-27T01:13:26.198Z,44.62
2023-03-27T01:14:08.888Z,44.32
2023-03-27T01:14:56.369Z,44.28
2023-03-27T01:15:35.470Z,44.36
2023-03-27T01:16:11.265Z,44.62
2023-03-27T01:16:54.091Z,44.59
2023-03-27T01:17:42.664Z,44.31
2023-03-27T01:18:31.275Z,44.19
2023-03-27T01:19:26.469Z,44.38
2023-03-27T01:20:35.618Z,44.27
2023-03-27T01:21:28.145Z,44.41
2023-03-27T01:22:34.221Z,44.14
2023-03-27T01:23:36.166Z,44.20
2023-03-27T01:24:49.347Z,44.45
2023-03-27T01:25:47.654Z,44.28
2023-03-27T01:26:58.009Z,44.14
2023-03-27T01:27:48.310Z,44.14
2023-03-27T01:28:37.198Z,44.41
2023-03-27T01:29:11.687Z,44.40
2023-03-27T01:30:07.939Z,44.62
2023-03-27T01:30:42.300Z,44.38
2023-03-27T01:31:28.130Z,44.43
2023-03-27T01:32:24.734Z,43.87
2023-03-27T01:33:47.309Z,44.10
2023-03-27T01:35:01.211Z,44.02
2023-03-27T01:36:03.411Z,44.36
2023-03-27T01:37:02.732Z,44.10
2023-03-27T01:38:06.788Z,44.53
2023-03-27T01:39:13.609Z,44.38
2023-03-27T01:39:49.812Z,44.14
2023-03-27T01:40:28.758Z,44.53
2023-03-27T01:41:06.080Z,44.10
2023-03-27T01:41:42.423Z,44.29
2023-03-27T01:42:21.812Z,44.45
2023-03-27T01:43:01.156Z,44.10
2023-03-27T01:43:36.787Z,44.26
2023-03-27T01:44:17.254Z,44.14
2023-03-27T01:44:52.793Z,44.48
2023-03-27T01:45:32.295Z,43.97
2023-03-27T01:46:08.862Z,44.41
2023-03-27T01:46:45.148Z,44.35
2023-03-27T01:47:28.616Z,43.91
2023-03-27T01:48:05.742Z,44.12
2023-03-27T01:48:42.940Z,44.34
2023-03-27T01:49:20.466Z,43.91
2023-03-27T01:49:56.505Z,43.93
2023-03-27T01:50:35.450Z,44.11
2023-03-27T01:51:11.786Z,44.09
2023-03-27T01:51:47.580Z,43.90
2023-03-27T01:52:27.846Z,44.09
2023-03-27T01:53:04.535Z,44.13
2023-03-27T01:53:42.463Z,43.88
2023-03-27T01:54:20.542Z,44.31
2023-03-27T01:54:58.640Z,44.12
2023-03-27T01:55:36.608Z,44.13
2023-03-27T01:56:13.697Z,43.95
2023-03-27T01:56:53.835Z,44.00
2023-03-27T01:57:34.694Z,43.93
2023-03-27T01:58:08.893Z,44.19
2023-03-27T01:58:46.567Z,44.39
2023-03-27T01:59:22.932Z,44.17
2023-03-27T02:00:18.846Z,44.17
2023-03-27T02:00:54.820Z,44.04
2023-03-27T02:01:34.085Z,44.09
2023-03-27T02:02:12.569Z,44.19
2023-03-27T02:02:46.799Z,43.95
2023-03-27T02:03:23.914Z,43.86
2023-03-27T02:03:58.574Z,44.24
2023-03-27T02:04:36.641Z,43.89
2023-03-27T02:05:16.867Z,44.15
2023-03-27T02:05:53.306Z,44.38
2023-03-27T02:06:29.411Z,44.24
2023-03-27T02:07:06.156Z,44.34
2023-03-27T02:07:45.674Z,44.05
2023-03-27T02:08:21.144Z,44.21
2023-03-27T02:08:58.838Z,44.38
2023-03-27T02:09:39.071Z,44.41
2023-03-27T02:10:17.996Z,44.19
2023-03-27T02:10:54.236Z,44.22
2023-03-27T02:11:32.367Z,44.18
2023-03-27T02:12:07.720Z,44.18
2023-03-27T02:12:43.335Z,44.34
2023-03-27T02:13:21.704Z,44.14
2023-03-27T02:13:57.456Z,44.38
2023-03-27T02:14:32.724Z,43.95
2023-03-27T02:15:23.422Z,44.16
2023-03-27T02:16:02.205Z,44.40
2023-03-27T02:16:36.517Z,44.02
2023-03-27T02:17:15.767Z,44.20
2023-03-27T02:17:51.192Z,44.17
2023-03-27T02:18:28.768Z,44.36
2023-03-27T02:19:06.046Z,44.42
2023-03-27T02:19:43.704Z,44.24
2023-03-27T02:20:16.667Z,44.22
2023-03-27T02:20:51.738Z,44.29
2023-03-27T02:21:24.973Z,44.24
2023-03-27T02:21:57.915Z,44.24
2023-03-27T02:22:37.701Z,44.23
2023-03-27T02:23:11.967Z,44.56
2023-03-27T02:23:47.725Z,43.95
2023-03-27T02:24:20.350Z,44.29
2023-03-27T02:24:56.988Z,44.05
2023-03-27T02:25:34.543Z,44.00
2023-03-27T02:26:07.082Z,44.26
2023-03-27T02:26:39.540Z,44.27
2023-03-27T02:27:20.209Z,44.05
2023-03-27T02:28:01.695Z,44.35
2023-03-27T02:29:11.823Z,44.43
2023-03-27T02:29:51.845Z,44.31
2023-03-27T02:30:28.090Z,44.25
2023-03-27T02:31:31.882Z,44.48
2023-03-27T02:32:09.498Z,44.34
2023-03-27T02:32:50.276Z,44.29
2023-03-27T02:33:36.799Z,44.30
2023-03-27T02:34:21.994Z,44.14
2023-03-27T02:35:05.606Z,44.54
2023-03-27T02:35:49.395Z,44.48
2023-03-27T02:36:29.279Z,44.24
2023-03-27T02:37:16.390Z,44.07
2023-03-27T02:38:12.000Z,44.08
2023-03-27T02:38:56.840Z,44.25
2023-03-27T02:39:36.126Z,44.09
2023-03-27T02:40:15.197Z,44.31
2023-03-27T02:40:56.112Z,44.40
2023-03-27T02:41:51.831Z,44.38
2023-03-27T02:42:47.166Z,44.31
2023-03-27T02:43:22.373Z,44.24
2023-03-27T02:44:01.120Z,44.24
2023-03-27T02:44:54.440Z,44.26
2023-03-27T02:45:34.051Z,44.42
2023-03-27T02:46:10.665Z,43.95
2023-03-27T02:46:48.453Z,44.17
2023-03-27T02:47:25.136Z,44.18
2023-03-27T02:48:00.854Z,44.33
2023-03-27T02:48:39.759Z,43.90
2023-03-27T02:49:16.697Z,44.36
2023-03-27T02:49:52.598Z,44.34
2023-03-27T02:50:31.641Z,43.88
2023-03-27T02:51:14.768Z,44.32
2023-03-27T02:51:50.108Z,44.14
2023-03-27T02:52:28.199Z,44.24
2023-03-27T02:53:02.415Z,43.90
2023-03-27T02:53:38.884Z,44.05
2023-03-27T02:54:17.341Z,43.94
2023-03-27T02:54:53.349Z,44.00
2023-03-27T02:55:33.400Z,43.83
2023-03-27T02:56:10.462Z,43.95
2023-03-27T02:56:46.483Z,43.85
2023-03-27T02:57:27.825Z,44.00
2023-03-27T02:58:23.642Z,44.19
2023-03-27T02:59:19.756Z,44.33
2023-03-27T02:59:57.354Z,44.09
2023-03-27T03:00:33.984Z,44.26
2023-03-27T03:01:22.416Z,44.00
2023-03-27T03:02:18.192Z,43.83
2023-03-27T03:03:07.877Z,43.79
2023-03-27T03:03:43.135Z,44.01
2023-03-27T03:04:33.585Z,43.83
2023-03-27T03:05:21.093Z,44.16
2023-03-27T03:05:53.893Z,43.87
2023-03-27T03:06:30.437Z,43.76
2023-03-27T03:07:06.631Z,43.82
2023-03-27T03:07:40.375Z,43.81
2023-03-27T03:08:15.806Z,43.81
2023-03-27T03:08:49.515Z,43.97
2023-03-27T03:09:22.183Z,43.79
2023-03-27T03:09:58.479Z,44.08
2023-03-27T03:10:33.688Z,44.27
2023-03-27T03:11:08.176Z,44.02
2023-03-27T03:11:46.529Z,43.85
2023-03-27T03:12:21.697Z,43.87
2023-03-27T03:12:54.089Z,44.08
2023-03-27T03:13:26.499Z,43.83
2023-03-27T03:14:01.547Z,44.19
2023-03-27T03:14:36.633Z,44.00
2023-03-27T03:15:10.781Z,44.00
2023-03-27T03:15:46.647Z,44.18
2023-03-27T03:16:20.168Z,43.85
2023-03-27T03:16:55.121Z,44.27
2023-03-27T03:17:27.927Z,44.17
2023-03-27T03:18:00.465Z,43.94
2023-03-27T03:18:35.458Z,43.85
2023-03-27T03:19:09.007Z,44.26
2023-03-27T03:19:41.653Z,44.03
2023-03-27T03:20:17.257Z,44.02
2023-03-27T03:20:49.623Z,44.27
2023-03-27T03:21:21.964Z,44.07
2023-03-27T03:21:56.995Z,44.14
2023-03-27T03:22:29.365Z,43.90
2023-03-27T03:23:02.637Z,44.04
2023-03-27T03:23:37.627Z,43.90
2023-03-27T03:24:10.702Z,44.27
2023-03-27T03:24:43.931Z,43.83
2023-03-27T03:25:22.701Z,44.03
2023-03-27T03:25:57.808Z,44.25
2023-03-27T03:26:38.182Z,44.03
2023-03-27T03:27:14.622Z,44.33
2023-03-27T03:27:58.580Z,44.31
2023-03-27T03:28:35.279Z,44.12
2023-03-27T03:29:08.125Z,44.07
2023-03-27T03:29:46.529Z,43.80
2023-03-27T03:30:27.552Z,44.05
2023-03-27T03:31:05.779Z,44.08
2023-03-27T03:31:46.981Z,44.26
2023-03-27T03:32:19.443Z,44.26
2023-03-27T03:32:55.641Z,44.10
2023-03-27T03:33:30.701Z,43.87
2023-03-27T03:34:03.767Z,44.12
2023-03-27T03:34:36.329Z,44.29
2023-03-27T03:35:13.886Z,43.83
2023-03-27T03:35:47.646Z,44.21
2023-03-27T03:36:31.075Z,44.08
2023-03-27T03:37:10.780Z,43.86
2023-03-27T03:37:44.113Z,43.95
2023-03-27T03:38:26.645Z,44.14
2023-03-27T03:38:59.765Z,44.75
2023-03-27T03:39:32.140Z,44.84
2023-03-27T03:40:12.162Z,45.01
2023-03-27T03:40:48.358Z,45.01
2023-03-27T03:41:28.215Z,45.15
2023-03-27T03:42:05.668Z,45.30
2023-03-27T03:42:44.067Z,45.52
2023-03-27T03:43:19.000Z,45.94
2023-03-27T03:43:51.554Z,46.00
2023-03-27T03:44:24.028Z,46.05
2023-03-27T03:44:59.090Z,46.29
2023-03-27T03:45:31.542Z,46.09
2023-03-27T03:46:05.788Z,45.95
2023-03-27T03:46:41.090Z,46.09
2023-03-27T03:47:14.446Z,46.07
2023-03-27T03:47:47.212Z,45.76
2023-03-27T03:48:23.346Z,46.17
2023-03-27T03:48:57.901Z,45.71
2023-03-27T03:49:31.850Z,46.12
2023-03-27T03:50:07.542Z,45.57
2023-03-27T03:50:40.429Z,45.67
2023-03-27T03:51:12.874Z,45.97
2023-03-27T03:51:48.126Z,45.60
2023-03-27T03:52:37.447Z,45.74
2023-03-27T03:53:10.047Z,45.84
2023-03-27T03:53:45.029Z,45.69
2023-03-27T03:54:17.452Z,45.78
2023-03-27T03:54:50.371Z,45.33
2023-03-27T03:55:25.857Z,45.53
2023-03-27T03:55:58.413Z,45.49
2023-03-27T03:56:34.733Z,45.66
2023-03-27T03:57:09.825Z,45.52
2023-03-27T03:57:47.262Z,45.45
2023-03-27T03:58:34.424Z,45.16
2023-03-27T03:59:11.165Z,45.08
2023-03-27T04:00:01.612Z,44.91
2023-03-27T04:00:51.727Z,45.11
2023-03-27T04:01:38.001Z,44.92
2023-03-27T04:02:12.593Z,45.04
2023-03-27T04:02:47.950Z,45.13
2023-03-27T04:03:22.156Z,44.96
2023-03-27T04:03:54.784Z,45.01
2023-03-27T04:04:30.074Z,45.12
2023-03-27T04:05:16.341Z,45.09
2023-03-27T04:05:51.374Z,45.15
2023-03-27T04:06:25.795Z,45.06
2023-03-27T04:07:05.793Z,44.81
2023-03-27T04:07:45.874Z,45.06
2023-03-27T04:08:27.034Z,44.67
2023-03-27T04:09:11.340Z,45.04
2023-03-27T04:10:09.207Z,44.95
2023-03-27T04:10:44.273Z,45.00
2023-03-27T04:11:43.573Z,45.06
2023-03-27T04:12:41.632Z,44.98
2023-03-27T04:13:21.378Z,44.58
2023-03-27T04:14:19.032Z,44.75
2023-03-27T04:14:54.474Z,44.68
2023-03-27T04:16:08.478Z,44.38
2023-03-27T04:16:45.417Z,44.65
2023-03-27T04:17:26.733Z,44.60
2023-03-27T04:18:02.744Z,44.60
2023-03-27T04:18:35.644Z,44.56
2023-03-27T04:19:13.024Z,44.14
2023-03-27T04:19:50.114Z,44.22
2023-03-27T04:20:26.724Z,44.06
2023-03-27T04:21:03.250Z,43.88
2023-03-27T04:21:36.622Z,44.38
2023-03-27T04:22:09.637Z,43.83
2023-03-27T04:22:46.870Z,44.14
2023-03-27T04:23:21.038Z,43.99
2023-03-27T04:23:53.834Z,44.15
2023-03-27T04:24:35.794Z,43.75
2023-03-27T04:25:08.933Z,43.96
2023-03-27T04:25:41.297Z,43.85
2023-03-27T04:26:18.440Z,44.14
2023-03-27T04:27:23.346Z,43.92
2023-03-27T04:28:07.202Z,43.93
2023-03-27T04:28:46.567Z,43.91
2023-03-27T04:29:43.539Z,43.66
2023-03-27T04:30:34.379Z,43.97
2023-03-27T04:31:21.336Z,43.57
2023-03-27T04:32:32.126Z,43.71
2023-03-27T04:33:30.668Z,43.64
2023-03-27T04:34:26.114Z,43.90
2023-03-27T04:35:17.340Z,44.20
2023-03-27T04:36:06.441Z,43.97
2023-03-27T04:37:08.803Z,44.07
2023-03-27T04:37:43.436Z,44.05
2023-03-27T04:38:21.286Z,43.99
2023-03-27T04:39:00.479Z,43.94
2023-03-27T04:39:37.355Z,43.91
2023-03-27T04:40:14.073Z,44.01
2023-03-27T04:40:49.634Z,43.91
2023-03-27T04:41:29.981Z,44.08
2023-03-27T04:42:04.608Z,43.97
2023-03-27T04:42:44.166Z,43.83
2023-03-27T04:43:20.323Z,43.99
2023-03-27T04:43:52.695Z,43.76
2023-03-27T04:44:25.203Z,43.81
2023-03-27T04:45:01.770Z,43.75
2023-03-27T04:45:35.094Z,43.81
2023-03-27T04:46:09.635Z,43.88
2023-03-27T04:46:45.115Z,44.02
2023-03-27T04:47:18.270Z,43.79
2023-03-27T04:47:50.959Z,44.20
2023-03-27T04:48:27.376Z,44.05
2023-03-27T04:49:01.433Z,43.95
2023-03-27T04:49:47.053Z,43.81
2023-03-27T04:50:35.305Z,44.16
2023-03-27T04:51:09.681Z,44.09
2023-03-27T04:51:42.295Z,44.23
2023-03-27T04:52:18.770Z,43.73
2023-03-27T04:52:52.702Z,44.02
2023-03-27T04:53:31.346Z,43.95
2023-03-27T04:54:08.467Z,43.82
2023-03-27T04:54:47.179Z,44.01
2023-03-27T04:55:20.147Z,44.01
2023-03-27T04:55:57.909Z,43.86
2023-03-27T04:56:31.020Z,43.86
2023-03-27T04:57:03.944Z,44.24
2023-03-27T04:57:39.904Z,44.17
2023-03-27T04:58:15.781Z,44.21
2023-03-27T04:58:51.562Z,44.00
2023-03-27T04:59:24.325Z,44.31
2023-03-27T05:00:24.071Z,44.21
2023-03-27T05:01:14.793Z,44.17
2023-03-27T05:02:06.598Z,43.76
2023-03-27T05:02:56.333Z,44.00
2023-03-27T05:03:43.389Z,43.70
2023-03-27T05:04:29.263Z,43.88
2023-03-27T05:05:17.184Z,44.06
2023-03-27T05:05:52.645Z,43.82
2023-03-27T05:06:25.737Z,43.76
2023-03-27T05:07:00.938Z,43.70
2023-03-27T05:07:35.974Z,43.88
2023-03-27T05:08:10.150Z,43.49
2023-03-27T05:08:42.619Z,43.95
2023-03-27T05:09:27.206Z,43.93
2023-03-27T05:10:00.202Z,43.97
2023-03-27T05:10:34.624Z,43.76
2023-03-27T05:11:10.979Z,43.76
2023-03-27T05:11:50.241Z,43.78
2023-03-27T05:12:24.271Z,43.90
2023-03-27T05:13:03.782Z,43.57
2023-03-27T05:13:38.771Z,43.64
2023-03-27T05:14:11.908Z,44.05
2023-03-27T05:14:49.418Z,43.52
2023-03-27T05:15:39.357Z,44.00
2023-03-27T05:16:17.745Z,43.97
2023-03-27T05:16:53.983Z,43.79
2023-03-27T05:17:27.656Z,43.86
2023-03-27T05:18:06.432Z,44.04
2023-03-27T05:18:41.759Z,44.07
2023-03-27T05:19:14.443Z,43.85
2023-03-27T05:19:54.726Z,43.86
2023-03-27T05:20:27.398Z,43.87
2023-03-27T05:21:00.822Z,43.94
2023-03-27T05:21:36.398Z,43.95
2023-03-27T05:22:08.780Z,43.71
2023-03-27T05:22:44.083Z,43.97
2023-03-27T05:23:39.295Z,44.26
2023-03-27T05:24:13.078Z,44.19
2023-03-27T05:24:45.499Z,43.77
2023-03-27T05:25:21.341Z,44.10
2023-03-27T05:26:00.699Z,43.80
2023-03-27T05:26:51.037Z,43.94
2023-03-27T05:27:24.290Z,43.83
2023-03-27T05:28:03.438Z,44.01
2023-03-27T05:28:41.352Z,43.97
2023-03-27T05:29:17.344Z,43.99
2023-03-27T05:29:51.899Z,44.17
2023-03-27T05:30:24.787Z,44.14
2023-03-27T05:31:10.981Z,43.95
2023-03-27T05:31:54.616Z,43.94
2023-03-27T05:32:44.723Z,43.96
2023-03-27T05:33:24.774Z,43.69
2023-03-27T05:33:59.832Z,43.70
2023-03-27T05:34:38.706Z,43.63
2023-03-27T05:35:19.452Z,43.91
2023-03-27T05:35:52.824Z,43.69
2023-03-27T05:36:27.720Z,43.92
2023-03-27T05:37:05.888Z,43.65
2023-03-27T05:37:47.788Z,43.84
2023-03-27T05:38:31.681Z,43.96
2023-03-27T05:39:17.620Z,44.07
2023-03-27T05:39:54.788Z,44.14
2023-03-27T05:40:28.439Z,43.67
2023-03-27T05:41:02.452Z,43.62
2023-03-27T05:41:39.561Z,43.99
2023-03-27T05:42:12.181Z,43.98
2023-03-27T05:42:46.885Z,43.88
2023-03-27T05:43:22.150Z,44.08
2023-03-27T05:43:57.293Z,43.73
2023-03-27T05:44:30.422Z,44.01
2023-03-27T05:45:05.460Z,43.78
2023-03-27T05:45:38.197Z,43.66
2023-03-27T05:46:11.299Z,43.59
2023-03-27T05:46:46.826Z,43.96
2023-03-27T05:47:24.588Z,43.59
2023-03-27T05:48:01.189Z,43.62
2023-03-27T05:48:38.796Z,43.97
2023-03-27T05:49:11.603Z,43.90
2023-03-27T05:49:48.070Z,43.37
2023-03-27T05:50:23.166Z,43.87
2023-03-27T05:50:59.888Z,43.55
2023-03-27T05:51:32.927Z,43.90
2023-03-27T05:52:05.744Z,43.71
2023-03-27T05:52:40.704Z,43.44
2023-03-27T05:53:13.153Z,43.59
2023-03-27T05:53:57.051Z,43.53
2023-03-27T05:54:39.156Z,43.85
2023-03-27T05:55:16.025Z,43.86
2023-03-27T05:56:02.728Z,43.42
2023-03-27T05:56:42.514Z,43.45
2023-03-27T05:57:17.592Z,43.73
2023-03-27T05:57:50.036Z,43.92
2023-03-27T05:58:22.558Z,43.91
2023-03-27T05:59:00.254Z,43.61
2023-03-27T05:59:34.806Z,43.61
2023-03-27T06:00:26.571Z,44.00
2023-03-27T06:01:01.050Z,43.71
2023-03-27T06:01:35.299Z,43.87
2023-03-27T06:02:11.996Z,44.01
2023-03-27T06:02:54.936Z,44.20
2023-03-27T06:03:30.637Z,43.99
2023-03-27T06:04:06.640Z,44.02
2023-03-27T06:04:59.322Z,44.29
2023-03-27T06:05:37.730Z,44.05
2023-03-27T06:06:14.689Z,43.79
2023-03-27T06:06:50.077Z,43.76
2023-03-27T06:07:26.211Z,43.78
2023-03-27T06:07:59.296Z,43.86
2023-03-27T06:08:31.667Z,43.74
2023-03-27T06:09:09.898Z,43.77
2023-03-27T06:09:43.280Z,44.00
2023-03-27T06:10:37.378Z,43.69
2023-03-27T06:11:21.630Z,43.80
2023-03-27T06:11:56.906Z,43.97
2023-03-27T06:12:30.237Z,43.93
2023-03-27T06:13:20.763Z,44.03
2023-03-27T06:14:04.309Z,43.79
2023-03-27T06:14:56.719Z,43.98
2023-03-27T06:16:01.632Z,43.85
2023-03-27T06:17:03.613Z,44.14
2023-03-27T06:17:54.020Z,43.89
2023-03-27T06:18:28.991Z,44.09
2023-03-27T06:19:01.406Z,43.71
2023-03-27T06:19:33.915Z,43.96
2023-03-27T06:20:15.536Z,43.95
2023-03-27T06:20:55.570Z,44.28
2023-03-27T06:21:30.782Z,44.29
2023-03-27T06:22:06.336Z,43.85
2023-03-27T06:22:42.969Z,43.99
2023-03-27T06:23:18.090Z,44.14
2023-03-27T06:23:50.786Z,43.88
2023-03-27T06:24:23.409Z,44.36
2023-03-27T06:24:58.995Z,44.29
2023-03-27T06:25:33.746Z,44.31
2023-03-27T06:26:09.623Z,44.07
2023-03-27T06:26:41.983Z,44.26
2023-03-27T06:27:15.334Z,44.17
2023-03-27T06:27:51.713Z,43.91
2023-03-27T06:28:24.529Z,44.32
2023-03-27T06:28:59.510Z,43.81
2023-03-27T06:29:37.542Z,44.34
2023-03-27T06:30:14.044Z,44.25
2023-03-27T06:30:51.472Z,44.24
2023-03-27T06:31:40.149Z,44.36
2023-03-27T06:32:21.963Z,44.21
2023-03-27T06:33:01.763Z,44.05
2023-03-27T06:33:35.241Z,44.59
2023-03-27T06:34:15.319Z,44.72
2023-03-27T06:35:08.790Z,44.46
2023-03-27T06:36:05.467Z,44.87
2023-03-27T06:36:42.002Z,44.36
2023-03-27T06:37:16.609Z,44.31
2023-03-27T06:37:53.000Z,44.76
2023-03-27T06:38:29.641Z,44.26
2023-03-27T06:39:06.499Z,44.31
2023-03-27T06:39:39.828Z,44.50
2023-03-27T06:40:20.724Z,44.45
2023-03-27T06:40:56.178Z,44.41
2023-03-27T06:41:29.670Z,44.66
2023-03-27T06:42:33.903Z,44.43
2023-03-27T06:43:29.136Z,44.42
2023-03-27T06:44:06.861Z,44.17
2023-03-27T06:44:56.413Z,44.30
2023-03-27T06:45:51.693Z,44.43
2023-03-27T06:46:46.644Z,44.07
2023-03-27T06:47:23.506Z,44.59
2023-03-27T06:48:30.316Z,44.55
2023-03-27T06:49:03.035Z,44.26
2023-03-27T06:49:38.043Z,44.16
2023-03-27T06:50:23.013Z,44.58
2023-03-27T06:50:58.551Z,44.65
2023-03-27T06:51:31.643Z,44.60
2023-03-27T06:52:04.428Z,44.20
2023-03-27T06:52:40.037Z,44.12
2023-03-27T06:53:38.205Z,44.60
2023-03-27T06:54:13.670Z,44.62
2023-03-27T06:54:53.595Z,44.35
2023-03-27T06:55:27.724Z,44.18
2023-03-27T06:56:04.257Z,44.56
2023-03-27T06:56:55.100Z,44.28
2023-03-27T06:57:30.670Z,44.48
2023-03-27T06:58:05.458Z,44.43
2023-03-27T06:58:40.678Z,44.11
2023-03-27T06:59:13.546Z,44.07
2023-03-27T06:59:46.626Z,44.53
2023-03-27T07:00:29.741Z,44.48
2023-03-27T07:01:30.637Z,44.07
2023-03-27T07:02:24.599Z,44.60
2023-03-27T07:03:18.525Z,44.43
2023-03-27T07:04:05.104Z,44.56
2023-03-27T07:05:12.502Z,44.55
2023-03-27T07:05:49.321Z,44.30
2023-03-27T07:06:25.422Z,44.55
2023-03-27T07:07:03.213Z,44.13
2023-03-27T07:07:41.453Z,44.54
2023-03-27T07:08:24.081Z,44.47
2023-03-27T07:09:01.384Z,44.53
2023-03-27T07:09:37.892Z,44.41
2023-03-27T07:10:13.963Z,44.32
2023-03-27T07:10:59.834Z,44.35
2023-03-27T07:11:42.765Z,44.38
2023-03-27T07:12:18.754Z,44.19
2023-03-27T07:12:54.448Z,44.22
2023-03-27T07:13:29.409Z,44.48
2023-03-27T07:14:04.482Z,44.27
2023-03-27T07:14:39.666Z,44.34
2023-03-27T07:15:12.759Z,44.70
2023-03-27T07:15:50.479Z,44.35
2023-03-27T07:16:25.120Z,44.53
2023-03-27T07:17:00.623Z,44.82
2023-03-27T07:17:48.637Z,44.29
2023-03-27T07:18:26.492Z,44.40
2023-03-27T07:19:02.100Z,44.24
2023-03-27T07:19:39.176Z,44.63
2023-03-27T07:20:16.514Z,44.43
2023-03-27T07:20:50.531Z,44.61
2023-03-27T07:21:29.875Z,44.31
2023-03-27T07:22:04.721Z,44.23
2023-03-27T07:22:42.980Z,44.26
2023-03-27T07:23:27.348Z,44.26
2023-03-27T07:24:09.261Z,44.58
2023-03-27T07:24:43.169Z,44.69
2023-03-27T07:25:19.359Z,44.39
2023-03-27T07:25:52.424Z,44.65
2023-03-27T07:26:41.114Z,44.47
2023-03-27T07:27:25.180Z,44.56
2023-03-27T07:28:06.059Z,44.22
2023-03-27T07:28:39.060Z,44.17
2023-03-27T07:29:15.846Z,44.49
2023-03-27T07:29:58.942Z,44.10
2023-03-27T07:30:31.609Z,44.09
2023-03-27T07:31:32.612Z,44.43
2023-03-27T07:32:09.645Z,44.07
2023-03-27T07:32:49.047Z,44.01
2023-03-27T07:33:24.971Z,44.25
2023-03-27T07:33:58.150Z,43.96
2023-03-27T07:34:56.498Z,44.46
2023-03-27T07:36:01.093Z,44.05
2023-03-27T07:36:49.345Z,43.99
2023-03-27T07:37:23.019Z,44.20
2023-03-27T07:38:21.206Z,44.29
2023-03-27T07:39:25.963Z,44.35
2023-03-27T07:39:58.690Z,44.06
2023-03-27T07:40:39.918Z,44.15
2023-03-27T07:41:41.417Z,44.24
2023-03-27T07:42:29.002Z,44.11
2023-03-27T07:43:09.685Z,44.24
2023-03-27T07:43:42.742Z,44.14
2023-03-27T07:44:18.763Z,43.96
2023-03-27T07:45:03.996Z,44.29
2023-03-27T07:45:39.783Z,43.91
2023-03-27T07:46:14.891Z,44.27
2023-03-27T07:46:52.239Z,44.27
2023-03-27T07:47:25.489Z,44.22
2023-03-27T07:48:08.640Z,44.02
2023-03-27T07:48:41.989Z,44.06
2023-03-27T07:49:39.356Z,43.78
2023-03-27T07:50:17.680Z,43.85
2023-03-27T07:50:56.098Z,44.01
2023-03-27T07:51:33.324Z,44.07
2023-03-27T07:52:09.303Z,43.95
2023-03-27T07:52:49.956Z,44.17
2023-03-27T07:53:33.463Z,44.00
2023-03-27T07:54:15.663Z,44.01
2023-03-27T07:54:57.078Z,43.84
2023-03-27T07:55:38.061Z,43.82
2023-03-27T07:56:15.270Z,43.88
2023-03-27T07:56:50.716Z,44.10
2023-03-27T07:58:01.711Z,43.97
2023-03-27T07:58:37.875Z,43.96
2023-03-27T07:59:11.823Z,43.85
2023-03-27T07:59:48.255Z,43.78
2023-03-27T08:00:29.915Z,43.80
2023-03-27T08:01:26.082Z,44.03
2023-03-27T08:01:58.579Z,44.06
2023-03-27T08:02:36.180Z,44.21
2023-03-27T08:03:10.956Z,44.02
2023-03-27T08:03:52.397Z,44.25
2023-03-27T08:04:26.299Z,43.70
2023-03-27T08:05:13.581Z,43.95
2023-03-27T08:05:56.777Z,43.71
2023-03-27T08:06:33.481Z,44.09
2023-03-27T08:07:07.378Z,43.76
2023-03-27T08:07:45.739Z,44.24
2023-03-27T08:08:21.635Z,44.12
2023-03-27T08:09:05.652Z,43.80
2023-03-27T08:09:38.101Z,44.04
2023-03-27T08:10:14.238Z,43.75
2023-03-27T08:10:59.180Z,44.16
2023-03-27T08:11:38.649Z,44.02
2023-03-27T08:12:12.410Z,43.88
2023-03-27T08:12:50.854Z,43.83
2023-03-27T08:13:23.341Z,44.16
2023-03-27T08:13:58.585Z,43.88
2023-03-27T08:14:33.284Z,44.14
2023-03-27T08:15:17.600Z,44.17
2023-03-27T08:15:51.183Z,44.09
2023-03-27T08:16:35.047Z,44.18
2023-03-27T08:17:15.655Z,44.06
2023-03-27T08:17:54.019Z,43.74
2023-03-27T08:18:32.553Z,43.78
2023-03-27T08:19:06.419Z,44.17
2023-03-27T08:19:46.754Z,43.85
2023-03-27T08:20:20.262Z,44.19
2023-03-27T08:20:56.057Z,43.95
2023-03-27T08:21:34.777Z,43.97
2023-03-27T08:22:07.323Z,44.06
2023-03-27T08:22:58.306Z,43.98
2023-03-27T08:23:38.098Z,44.05
2023-03-27T08:24:31.265Z,44.17